sensor_id;sensor_type;location;lat;lon;timestamp;temperature;humidity
15481;DHT22;7842;50.904;6.670;2023-09-19T08:50:26;18.10;99.90
15481;DHT22;7842;50.904;6.670;2023-09-19T08:52:56;18.10;99.90
15481;DHT22;7842;50.904;6.670;2023-09-19T08:55:28;18.10;99.90
15481;DHT22;7842;50.904;6.670;2023-09-19T08:58:00;18.20;99.90
15481;DHT22;7842;50.904;6.670;2023-09-19T09:00:29;18.30;99.90
15481;DHT22;7842;50.904;6.670;2023-09-19T09:02:57;18.30;99.90
15481;DHT22;7842;50.904;6.670;2023-09-19T09:05:24;18.40;99.90
15481;DHT22;7842;50.904;6.670;2023-09-19T09:07:52;18.60;99.90
15481;DHT22;7842;50.904;6.670;2023-09-19T09:10:21;18.70;99.90
15481;DHT22;7842;50.904;6.670;2023-09-19T09:12:52;18.70;99.90
15481;DHT22;7842;50.904;6.670;2023-09-19T09:15:21;18.70;99.90
15481;DHT22;7842;50.904;6.670;2023-09-19T09:17:49;18.80;99.90
15481;DHT22;7842;50.904;6.670;2023-09-19T09:56:58;19.00;99.90
15481;DHT22;7842;50.904;6.670;2023-09-19T10:07:31;19.50;99.90
15481;DHT22;7842;50.904;6.670;2023-09-19T10:10:08;19.50;99.90
15481;DHT22;7842;50.904;6.670;2023-09-19T10:12:48;19.60;99.90
15481;DHT22;7842;50.904;6.670;2023-09-19T10:15:18;19.60;99.90
15481;DHT22;7842;50.904;6.670;2023-09-19T10:17:47;19.60;99.90
15481;DHT22;7842;50.904;6.670;2023-09-19T10:20:15;19.50;99.90
15481;DHT22;7842;50.904;6.670;2023-09-19T10:23:03;19.50;99.90
15481;DHT22;7842;50.904;6.670;2023-09-19T11:29:32;19.80;99.90
15481;DHT22;7842;50.904;6.670;2023-09-19T11:47:33;19.90;99.90
15481;DHT22;7842;50.904;6.670;2023-09-19T11:50:01;20.00;99.90
15481;DHT22;7842;50.904;6.670;2023-09-19T11:52:28;20.10;99.90
15481;DHT22;7842;50.904;6.670;2023-09-19T11:55:01;20.10;99.90
15481;DHT22;7842;50.904;6.670;2023-09-19T11:57:29;20.20;99.90
15481;DHT22;7842;50.904;6.670;2023-09-19T11:59:55;20.20;99.90
15481;DHT22;7842;50.904;6.670;2023-09-19T12:02:42;20.30;99.90
15481;DHT22;7842;50.904;6.670;2023-09-19T12:05:12;20.30;99.90
15481;DHT22;7842;50.904;6.670;2023-09-19T12:07:44;20.30;99.90
15481;DHT22;7842;50.904;6.670;2023-09-19T12:10:14;20.30;99.90
15481;DHT22;7842;50.904;6.670;2023-09-19T12:12:47;20.40;99.90
15481;DHT22;7842;50.904;6.670;2023-09-19T12:15:24;20.60;99.90
15481;DHT22;7842;50.904;6.670;2023-09-19T12:17:59;20.60;99.90
15481;DHT22;7842;50.904;6.670;2023-09-19T12:20:25;20.60;99.90
15481;DHT22;7842;50.904;6.670;2023-09-19T12:22:53;20.60;99.90
15481;DHT22;7842;50.904;6.670;2023-09-19T12:25:18;20.60;99.90
15481;DHT22;7842;50.904;6.670;2023-09-19T12:27:50;20.60;99.90
15481;DHT22;7842;50.904;6.670;2023-09-19T12:30:19;20.60;99.90
15481;DHT22;7842;50.904;6.670;2023-09-19T12:32:46;20.60;99.90
15481;DHT22;7842;50.904;6.670;2023-09-19T12:35:30;20.70;99.90
15481;DHT22;7842;50.904;6.670;2023-09-19T12:38:00;20.90;99.90
15481;DHT22;7842;50.904;6.670;2023-09-19T12:40:26;20.90;99.90
15481;DHT22;7842;50.904;6.670;2023-09-19T12:42:59;21.10;99.90
15481;DHT22;7842;50.904;6.670;2023-09-19T12:45:28;21.10;99.90
15481;DHT22;7842;50.904;6.670;2023-09-19T12:48:25;21.20;99.90
15481;DHT22;7842;50.904;6.670;2023-09-19T12:51:09;21.20;99.90
15481;DHT22;7842;50.904;6.670;2023-09-19T12:56:16;21.10;99.90
15481;DHT22;7842;50.904;6.670;2023-09-19T13:01:22;21.10;99.90
15481;DHT22;7842;50.904;6.670;2023-09-19T13:04:15;21.10;99.90
15481;DHT22;7842;50.904;6.670;2023-09-19T13:06:48;21.10;99.90
15481;DHT22;7842;50.904;6.670;2023-09-19T13:09:15;21.10;99.90
15481;DHT22;7842;50.904;6.670;2023-09-19T13:11:43;21.20;99.90
15481;DHT22;7842;50.904;6.670;2023-09-19T13:17:04;21.40;99.90
15481;DHT22;7842;50.904;6.670;2023-09-19T13:19:45;21.30;99.90
15481;DHT22;7842;50.904;6.670;2023-09-19T13:22:39;21.30;99.90
15481;DHT22;7842;50.904;6.670;2023-09-19T13:25:09;21.30;99.90
15481;DHT22;7842;50.904;6.670;2023-09-19T13:27:41;21.40;99.90
15481;DHT22;7842;50.904;6.670;2023-09-19T13:30:08;21.50;99.90
15481;DHT22;7842;50.904;6.670;2023-09-19T13:32:34;21.60;99.90
15481;DHT22;7842;50.904;6.670;2023-09-19T13:34:59;21.60;99.90
15481;DHT22;7842;50.904;6.670;2023-09-19T13:37:25;21.80;99.90
15481;DHT22;7842;50.904;6.670;2023-09-19T13:39:52;21.70;99.90
15481;DHT22;7842;50.904;6.670;2023-09-19T13:42:19;21.70;99.90
15481;DHT22;7842;50.904;6.670;2023-09-19T13:44:47;21.60;99.90
15481;DHT22;7842;50.904;6.670;2023-09-19T13:47:13;21.60;99.90
15481;DHT22;7842;50.904;6.670;2023-09-19T13:49:39;21.60;99.90
15481;DHT22;7842;50.904;6.670;2023-09-19T13:52:05;21.60;99.90
15481;DHT22;7842;50.904;6.670;2023-09-19T13:54:31;21.60;99.90
15481;DHT22;7842;50.904;6.670;2023-09-19T13:56:57;21.50;99.90
15481;DHT22;7842;50.904;6.670;2023-09-19T13:59:23;21.60;99.90
15481;DHT22;7842;50.904;6.670;2023-09-19T14:01:49;21.40;99.90
15481;DHT22;7842;50.904;6.670;2023-09-19T14:04:16;21.30;99.90
15481;DHT22;7842;50.904;6.670;2023-09-19T14:06:42;21.20;99.90
15481;DHT22;7842;50.904;6.670;2023-09-19T14:09:08;21.30;99.90
15481;DHT22;7842;50.904;6.670;2023-09-19T14:11:35;21.50;99.90
15481;DHT22;7842;50.904;6.670;2023-09-19T14:14:01;21.50;99.90
15481;DHT22;7842;50.904;6.670;2023-09-19T14:16:27;21.50;99.90
15481;DHT22;7842;50.904;6.670;2023-09-19T14:18:56;21.40;99.90
15481;DHT22;7842;50.904;6.670;2023-09-19T14:21:23;21.30;99.90
15481;DHT22;7842;50.904;6.670;2023-09-19T14:23:49;21.20;99.90
15481;DHT22;7842;50.904;6.670;2023-09-19T14:26:15;21.20;99.90
15481;DHT22;7842;50.904;6.670;2023-09-19T14:28:44;21.10;99.90
15481;DHT22;7842;50.904;6.670;2023-09-19T14:31:11;21.10;99.90
15481;DHT22;7842;50.904;6.670;2023-09-19T14:33:37;21.20;99.90
15481;DHT22;7842;50.904;6.670;2023-09-19T14:36:09;21.40;99.90
15481;DHT22;7842;50.904;6.670;2023-09-19T14:38:37;21.50;99.90
15481;DHT22;7842;50.904;6.670;2023-09-19T14:41:04;21.60;99.90
15481;DHT22;7842;50.904;6.670;2023-09-19T14:43:30;21.60;99.90
15481;DHT22;7842;50.904;6.670;2023-09-19T14:46:03;21.60;99.90
15481;DHT22;7842;50.904;6.670;2023-09-19T14:48:28;21.50;99.90
15481;DHT22;7842;50.904;6.670;2023-09-19T14:50:54;21.30;99.90
15481;DHT22;7842;50.904;6.670;2023-09-19T14:53:21;21.30;99.90
15481;DHT22;7842;50.904;6.670;2023-09-19T14:55:47;21.20;99.90
15481;DHT22;7842;50.904;6.670;2023-09-19T14:58:17;21.30;99.90
15481;DHT22;7842;50.904;6.670;2023-09-19T15:00:43;21.30;99.90
15481;DHT22;7842;50.904;6.670;2023-09-19T15:03:11;21.20;99.90
15481;DHT22;7842;50.904;6.670;2023-09-19T15:05:37;21.20;99.90
15481;DHT22;7842;50.904;6.670;2023-09-19T15:08:02;21.10;99.90
15481;DHT22;7842;50.904;6.670;2023-09-19T15:10:28;21.10;99.90
15481;DHT22;7842;50.904;6.670;2023-09-19T15:12:55;21.10;99.90
15481;DHT22;7842;50.904;6.670;2023-09-19T15:15:20;21.10;99.90
15481;DHT22;7842;50.904;6.670;2023-09-19T15:17:46;21.10;99.90
15481;DHT22;7842;50.904;6.670;2023-09-19T15:20:12;21.20;99.90
15481;DHT22;7842;50.904;6.670;2023-09-19T15:22:40;21.20;99.90
15481;DHT22;7842;50.904;6.670;2023-09-19T15:25:06;21.10;99.90
15481;DHT22;7842;50.904;6.670;2023-09-19T15:27:32;21.00;99.90
15481;DHT22;7842;50.904;6.670;2023-09-19T15:29:59;20.90;99.90
15481;DHT22;7842;50.904;6.670;2023-09-19T15:37:18;20.70;99.90
15481;DHT22;7842;50.904;6.670;2023-09-19T15:39:44;20.70;99.90
15481;DHT22;7842;50.904;6.670;2023-09-19T15:42:11;20.70;99.90
15481;DHT22;7842;50.904;6.670;2023-09-19T15:44:37;20.70;99.90
15481;DHT22;7842;50.904;6.670;2023-09-19T15:47:04;20.60;99.90
15481;DHT22;7842;50.904;6.670;2023-09-19T15:49:30;20.60;99.90
15481;DHT22;7842;50.904;6.670;2023-09-19T15:51:55;20.70;99.90
15481;DHT22;7842;50.904;6.670;2023-09-19T15:54:21;20.70;99.90
15481;DHT22;7842;50.904;6.670;2023-09-19T15:56:47;20.80;99.90
15481;DHT22;7842;50.904;6.670;2023-09-19T15:59:14;20.90;99.90
15481;DHT22;7842;50.904;6.670;2023-09-19T16:01:44;20.80;99.90
15481;DHT22;7842;50.904;6.670;2023-09-19T16:06:37;20.80;99.90
15481;DHT22;7842;50.904;6.670;2023-09-19T16:09:04;20.70;99.90
15481;DHT22;7842;50.904;6.670;2023-09-19T16:11:32;20.70;99.90
15481;DHT22;7842;50.904;6.670;2023-09-19T16:13:58;20.70;99.90
15481;DHT22;7842;50.904;6.670;2023-09-19T16:16:26;20.60;99.90
15481;DHT22;7842;50.904;6.670;2023-09-19T16:19:00;20.60;99.90
15481;DHT22;7842;50.904;6.670;2023-09-19T16:21:28;20.60;99.90
15481;DHT22;7842;50.904;6.670;2023-09-19T16:23:56;20.70;99.90
15481;DHT22;7842;50.904;6.670;2023-09-19T16:26:23;20.60;99.90
15481;DHT22;7842;50.904;6.670;2023-09-19T16:28:51;20.70;99.90
15481;DHT22;7842;50.904;6.670;2023-09-19T16:31:17;20.70;99.90
15481;DHT22;7842;50.904;6.670;2023-09-19T16:33:45;20.80;99.90
15481;DHT22;7842;50.904;6.670;2023-09-19T16:36:16;20.80;99.90
15481;DHT22;7842;50.904;6.670;2023-09-19T16:38:43;20.70;99.90
15481;DHT22;7842;50.904;6.670;2023-09-19T16:41:10;20.60;99.90
15481;DHT22;7842;50.904;6.670;2023-09-19T16:43:37;20.60;99.90
15481;DHT22;7842;50.904;6.670;2023-09-19T16:46:08;20.50;99.90
15481;DHT22;7842;50.904;6.670;2023-09-19T16:48:39;20.40;99.90
15481;DHT22;7842;50.904;6.670;2023-09-19T16:51:07;20.40;99.90
15481;DHT22;7842;50.904;6.670;2023-09-19T16:53:34;20.20;99.90
15481;DHT22;7842;50.904;6.670;2023-09-19T16:56:12;20.30;99.90
15481;DHT22;7842;50.904;6.670;2023-09-19T16:58:44;20.10;99.90
15481;DHT22;7842;50.904;6.670;2023-09-19T17:01:11;20.00;99.90
15481;DHT22;7842;50.904;6.670;2023-09-19T17:06:11;19.80;99.90
15481;DHT22;7842;50.904;6.670;2023-09-19T17:08:38;19.80;99.90
15481;DHT22;7842;50.904;6.670;2023-09-19T17:11:08;19.80;99.90
15481;DHT22;7842;50.904;6.670;2023-09-19T17:13:35;19.80;99.90
15481;DHT22;7842;50.904;6.670;2023-09-19T17:16:13;19.80;99.90
15481;DHT22;7842;50.904;6.670;2023-09-19T17:18:45;19.70;99.90
15481;DHT22;7842;50.904;6.670;2023-09-19T17:21:11;19.70;99.90
15481;DHT22;7842;50.904;6.670;2023-09-19T17:23:39;19.60;99.90
15481;DHT22;7842;50.904;6.670;2023-09-19T17:26:10;19.50;99.90
15481;DHT22;7842;50.904;6.670;2023-09-19T17:28:37;19.50;99.90
15481;DHT22;7842;50.904;6.670;2023-09-19T17:31:16;19.40;99.90
15481;DHT22;7842;50.904;6.670;2023-09-19T17:33:43;19.30;99.90
15481;DHT22;7842;50.904;6.670;2023-09-19T17:36:18;19.30;99.90
15481;DHT22;7842;50.904;6.670;2023-09-19T17:38:45;19.20;99.90
15481;DHT22;7842;50.904;6.670;2023-09-19T17:41:12;19.20;99.90
15481;DHT22;7842;50.904;6.670;2023-09-19T17:43:42;19.10;99.90
15481;DHT22;7842;50.904;6.670;2023-09-19T17:46:16;19.10;99.90
15481;DHT22;7842;50.904;6.670;2023-09-19T17:48:47;19.00;99.90
15481;DHT22;7842;50.904;6.670;2023-09-19T17:51:13;19.00;99.90
15481;DHT22;7842;50.904;6.670;2023-09-19T17:53:41;18.90;99.90
15481;DHT22;7842;50.904;6.670;2023-09-19T17:56:10;18.90;99.90
15481;DHT22;7842;50.904;6.670;2023-09-19T17:58:37;18.90;99.90
15481;DHT22;7842;50.904;6.670;2023-09-19T18:01:12;18.90;99.90
15481;DHT22;7842;50.904;6.670;2023-09-19T18:03:39;18.80;99.90
15481;DHT22;7842;50.904;6.670;2023-09-19T18:06:06;18.80;99.90
15481;DHT22;7842;50.904;6.670;2023-09-19T18:08:33;18.80;99.90
15481;DHT22;7842;50.904;6.670;2023-09-19T18:10:59;18.80;99.90
15481;DHT22;7842;50.904;6.670;2023-09-19T18:13:26;18.80;99.90
15481;DHT22;7842;50.904;6.670;2023-09-19T18:15:52;18.80;99.90
15481;DHT22;7842;50.904;6.670;2023-09-19T18:18:20;18.80;99.90
15481;DHT22;7842;50.904;6.670;2023-09-19T18:20:46;18.70;99.90
15481;DHT22;7842;50.904;6.670;2023-09-19T18:23:12;18.70;99.90
15481;DHT22;7842;50.904;6.670;2023-09-19T18:25:38;18.70;99.90
15481;DHT22;7842;50.904;6.670;2023-09-19T18:28:04;18.70;99.90
15481;DHT22;7842;50.904;6.670;2023-09-19T18:30:31;18.80;99.90
15481;DHT22;7842;50.904;6.670;2023-09-19T18:32:59;18.80;99.90
15481;DHT22;7842;50.904;6.670;2023-09-19T18:35:24;18.80;99.90
15481;DHT22;7842;50.904;6.670;2023-09-19T18:37:53;18.80;99.90
15481;DHT22;7842;50.904;6.670;2023-09-19T18:40:21;18.80;99.90
15481;DHT22;7842;50.904;6.670;2023-09-19T18:42:46;18.80;99.90
15481;DHT22;7842;50.904;6.670;2023-09-19T18:45:13;18.80;99.90
15481;DHT22;7842;50.904;6.670;2023-09-19T18:47:39;18.80;99.90
15481;DHT22;7842;50.904;6.670;2023-09-19T18:50:06;18.80;99.90
15481;DHT22;7842;50.904;6.670;2023-09-19T18:52:35;18.70;99.90
15481;DHT22;7842;50.904;6.670;2023-09-19T18:55:03;18.70;99.90
15481;DHT22;7842;50.904;6.670;2023-09-19T18:57:30;18.70;99.90
15481;DHT22;7842;50.904;6.670;2023-09-19T18:59:56;18.70;99.90
15481;DHT22;7842;50.904;6.670;2023-09-19T19:02:21;18.70;99.90
15481;DHT22;7842;50.904;6.670;2023-09-19T19:04:48;18.70;99.90
15481;DHT22;7842;50.904;6.670;2023-09-19T19:07:14;18.70;99.90
15481;DHT22;7842;50.904;6.670;2023-09-19T19:09:42;18.70;99.90
15481;DHT22;7842;50.904;6.670;2023-09-19T19:12:09;18.70;99.90
15481;DHT22;7842;50.904;6.670;2023-09-19T19:14:35;18.70;99.90
15481;DHT22;7842;50.904;6.670;2023-09-19T19:17:01;18.70;99.90
15481;DHT22;7842;50.904;6.670;2023-09-19T19:19:27;18.70;99.90
15481;DHT22;7842;50.904;6.670;2023-09-19T19:21:53;18.70;99.90
15481;DHT22;7842;50.904;6.670;2023-09-19T19:24:19;18.60;99.90
15481;DHT22;7842;50.904;6.670;2023-09-19T19:26:46;18.60;99.90
15481;DHT22;7842;50.904;6.670;2023-09-19T19:29:12;18.60;99.90
15481;DHT22;7842;50.904;6.670;2023-09-19T19:31:39;18.70;99.90
15481;DHT22;7842;50.904;6.670;2023-09-19T19:34:06;18.60;99.90
15481;DHT22;7842;50.904;6.670;2023-09-19T19:36:35;18.60;99.90
15481;DHT22;7842;50.904;6.670;2023-09-19T19:39:00;18.60;99.90
15481;DHT22;7842;50.904;6.670;2023-09-19T19:41:26;18.60;99.90
15481;DHT22;7842;50.904;6.670;2023-09-19T19:43:52;18.60;99.90
15481;DHT22;7842;50.904;6.670;2023-09-19T19:46:18;18.50;99.90
15481;DHT22;7842;50.904;6.670;2023-09-19T19:48:48;18.50;99.90
15481;DHT22;7842;50.904;6.670;2023-09-19T19:51:13;18.60;99.90
15481;DHT22;7842;50.904;6.670;2023-09-19T19:53:39;18.60;99.90
15481;DHT22;7842;50.904;6.670;2023-09-19T19:56:05;18.60;99.90
15481;DHT22;7842;50.904;6.670;2023-09-19T19:58:32;18.40;99.90
15481;DHT22;7842;50.904;6.670;2023-09-19T20:00:58;18.60;99.90
15481;DHT22;7842;50.904;6.670;2023-09-19T20:03:25;18.60;99.90
15481;DHT22;7842;50.904;6.670;2023-09-19T20:05:52;18.60;99.90
15481;DHT22;7842;50.904;6.670;2023-09-19T20:08:18;18.60;99.90
15481;DHT22;7842;50.904;6.670;2023-09-19T20:10:44;18.60;99.90
15481;DHT22;7842;50.904;6.670;2023-09-19T20:13:10;18.60;99.90
15481;DHT22;7842;50.904;6.670;2023-09-19T20:15:38;18.60;99.90
15481;DHT22;7842;50.904;6.670;2023-09-19T20:18:05;18.50;99.90
15481;DHT22;7842;50.904;6.670;2023-09-19T20:20:36;18.50;99.90
15481;DHT22;7842;50.904;6.670;2023-09-19T20:23:03;18.50;99.90
15481;DHT22;7842;50.904;6.670;2023-09-19T20:25:29;18.50;99.90
15481;DHT22;7842;50.904;6.670;2023-09-19T20:27:55;18.50;99.90
15481;DHT22;7842;50.904;6.670;2023-09-19T20:30:21;18.40;99.90
15481;DHT22;7842;50.904;6.670;2023-09-19T20:32:49;18.40;99.90
15481;DHT22;7842;50.904;6.670;2023-09-19T20:35:15;18.40;99.90
15481;DHT22;7842;50.904;6.670;2023-09-19T20:37:41;18.40;99.90
15481;DHT22;7842;50.904;6.670;2023-09-19T20:40:08;18.40;99.90
15481;DHT22;7842;50.904;6.670;2023-09-19T20:42:39;18.40;99.90
15481;DHT22;7842;50.904;6.670;2023-09-19T20:45:08;18.50;99.90
15481;DHT22;7842;50.904;6.670;2023-09-19T20:47:41;18.50;99.90
15481;DHT22;7842;50.904;6.670;2023-09-19T20:50:08;18.50;99.90
15481;DHT22;7842;50.904;6.670;2023-09-19T20:52:35;18.50;99.90
15481;DHT22;7842;50.904;6.670;2023-09-19T20:55:01;18.50;99.90
15481;DHT22;7842;50.904;6.670;2023-09-19T20:57:28;18.50;99.90
15481;DHT22;7842;50.904;6.670;2023-09-19T20:59:54;18.60;99.90
15481;DHT22;7842;50.904;6.670;2023-09-19T21:02:20;18.60;99.90
15481;DHT22;7842;50.904;6.670;2023-09-19T21:04:46;18.60;99.90
15481;DHT22;7842;50.904;6.670;2023-09-19T21:07:11;18.60;99.90
15481;DHT22;7842;50.904;6.670;2023-09-19T21:09:37;18.60;99.90
15481;DHT22;7842;50.904;6.670;2023-09-19T21:12:04;18.60;99.90
15481;DHT22;7842;50.904;6.670;2023-09-19T21:14:30;18.60;99.90
15481;DHT22;7842;50.904;6.670;2023-09-19T21:16:57;18.60;99.90
15481;DHT22;7842;50.904;6.670;2023-09-19T21:19:24;18.60;99.90
15481;DHT22;7842;50.904;6.670;2023-09-19T21:21:49;18.60;99.90
15481;DHT22;7842;50.904;6.670;2023-09-19T21:24:15;18.60;99.90
15481;DHT22;7842;50.904;6.670;2023-09-19T21:26:46;18.60;99.90
15481;DHT22;7842;50.904;6.670;2023-09-19T21:29:12;18.60;99.90
15481;DHT22;7842;50.904;6.670;2023-09-19T21:31:38;18.60;99.90
15481;DHT22;7842;50.904;6.670;2023-09-19T21:34:05;18.60;99.90
15481;DHT22;7842;50.904;6.670;2023-09-19T21:36:32;18.60;99.90
15481;DHT22;7842;50.904;6.670;2023-09-19T21:38:59;18.60;99.90
15481;DHT22;7842;50.904;6.670;2023-09-19T21:41:25;18.60;99.90
15481;DHT22;7842;50.904;6.670;2023-09-19T21:43:52;18.60;99.90
15481;DHT22;7842;50.904;6.670;2023-09-19T21:46:21;18.50;99.90
15481;DHT22;7842;50.904;6.670;2023-09-19T21:48:48;18.50;99.90
15481;DHT22;7842;50.904;6.670;2023-09-19T21:51:15;18.50;99.90
15481;DHT22;7842;50.904;6.670;2023-09-19T21:53:41;18.50;99.90
15481;DHT22;7842;50.904;6.670;2023-09-19T21:56:07;18.50;99.90
15481;DHT22;7842;50.904;6.670;2023-09-19T21:58:34;18.50;99.90
15481;DHT22;7842;50.904;6.670;2023-09-19T22:01:03;18.50;99.90
15481;DHT22;7842;50.904;6.670;2023-09-19T22:03:37;18.40;99.90
15481;DHT22;7842;50.904;6.670;2023-09-19T22:08:33;18.40;99.90
15481;DHT22;7842;50.904;6.670;2023-09-19T22:11:00;18.40;99.90
15481;DHT22;7842;50.904;6.670;2023-09-19T22:13:26;18.30;99.90
15481;DHT22;7842;50.904;6.670;2023-09-19T22:15:59;18.20;99.90
15481;DHT22;7842;50.904;6.670;2023-09-19T22:18:29;18.20;99.90
15481;DHT22;7842;50.904;6.670;2023-09-19T22:20:56;18.00;99.90
15481;DHT22;7842;50.904;6.670;2023-09-19T22:23:29;18.00;99.90
15481;DHT22;7842;50.904;6.670;2023-09-19T22:26:02;18.00;99.90
15481;DHT22;7842;50.904;6.670;2023-09-19T22:28:33;18.00;99.90
15481;DHT22;7842;50.904;6.670;2023-09-19T22:30:59;17.90;99.90
15481;DHT22;7842;50.904;6.670;2023-09-19T22:33:27;17.90;99.90
15481;DHT22;7842;50.904;6.670;2023-09-19T22:35:54;17.80;99.90
15481;DHT22;7842;50.904;6.670;2023-09-19T22:38:22;17.70;99.90
15481;DHT22;7842;50.904;6.670;2023-09-19T22:40:48;17.70;99.90
15481;DHT22;7842;50.904;6.670;2023-09-19T22:43:26;17.70;99.90
15481;DHT22;7842;50.904;6.670;2023-09-19T22:46:02;17.70;99.90
15481;DHT22;7842;50.904;6.670;2023-09-19T22:48:33;17.60;99.90
15481;DHT22;7842;50.904;6.670;2023-09-19T22:50:59;17.60;99.90
15481;DHT22;7842;50.904;6.670;2023-09-19T22:53:31;17.50;99.90
15481;DHT22;7842;50.904;6.670;2023-09-19T22:56:01;17.50;99.90
15481;DHT22;7842;50.904;6.670;2023-09-19T22:58:35;17.40;99.90
15481;DHT22;7842;50.904;6.670;2023-09-19T23:01:15;17.50;99.90
15481;DHT22;7842;50.904;6.670;2023-09-19T23:04:04;17.50;99.90
15481;DHT22;7842;50.904;6.670;2023-09-19T23:06:47;17.40;99.90
15481;DHT22;7842;50.904;6.670;2023-09-19T23:09:20;17.40;99.90
15481;DHT22;7842;50.904;6.670;2023-09-19T23:11:48;17.40;99.90
15481;DHT22;7842;50.904;6.670;2023-09-19T23:14:15;17.40;99.90
15481;DHT22;7842;50.904;6.670;2023-09-19T23:16:41;17.40;99.90
15481;DHT22;7842;50.904;6.670;2023-09-19T23:19:13;17.40;99.90
15481;DHT22;7842;50.904;6.670;2023-09-19T23:21:55;17.40;99.90
15481;DHT22;7842;50.904;6.670;2023-09-19T23:24:23;17.40;99.90
15481;DHT22;7842;50.904;6.670;2023-09-19T23:26:52;17.40;99.90
15481;DHT22;7842;50.904;6.670;2023-09-19T23:29:24;17.30;99.90
15481;DHT22;7842;50.904;6.670;2023-09-19T23:49:05;17.30;99.90
15481;DHT22;7842;50.904;6.670;2023-09-19T23:51:37;17.40;99.90
15481;DHT22;7842;50.904;6.670;2023-09-19T23:54:06;17.40;99.90
15481;DHT22;7842;50.904;6.670;2023-09-19T23:56:33;17.30;99.90
15481;DHT22;7842;50.904;6.670;2023-09-19T23:58:59;17.30;99.90
